Time;durP1;ratioP1;P1;durP2;ratioP2;P2;SDS_P1;SDS_P2;PMS_P1;PMS_P2;Temp;Humidity;BMP_temperature;BMP_pressure;BME280_temperature;BME280_humidity;BME280_pressure;Samples;Min_cycle;Max_cycle;Signal;HPM_P1;HPM_P2
2023/07/18 00:02:09;;;;;;;4.65;3.92;;;22.60;66.40;;;;;;4968614;28;20121;-64
2023/07/18 00:04:34;;;;;;;4.78;4.32;;;22.50;66.70;;;;;;4969395;28;20417;-63
2023/07/18 00:07:00;;;;;;;5.03;4.20;;;22.60;67.10;;;;;;4970735;28;20031;-64
2023/07/18 00:09:25;;;;;;;5.35;4.18;;;22.50;66.90;;;;;;4973582;28;20038;-63
2023/07/18 00:11:51;;;;;;;6.55;4.57;;;22.50;66.90;;;;;;4966593;28;20058;-61
2023/07/18 00:14:17;;;;;;;4.53;4.00;;;22.50;67.10;;;;;;4972563;28;20027;-63
2023/07/18 00:16:44;;;;;;;6.95;4.15;;;22.40;67.50;;;;;;4968633;28;20515;-63
2023/07/18 00:19:12;;;;;;;6.05;4.72;;;22.40;67.50;;;;;;4963586;28;20053;-63
2023/07/18 00:21:41;;;;;;;4.97;4.40;;;22.40;67.60;;;;;;4972595;28;20042;-63
2023/07/18 00:24:07;;;;;;;4.10;3.70;;;22.40;68.20;;;;;;4970492;28;20601;-63
2023/07/18 00:26:33;;;;;;;5.40;4.30;;;22.40;67.90;;;;;;4966703;28;20038;-64
2023/07/18 00:28:58;;;;;;;5.40;4.07;;;22.30;67.80;;;;;;4970859;28;20082;-63
2023/07/18 00:31:24;;;;;;;5.05;3.58;;;22.30;67.60;;;;;;4973586;28;20567;-63
2023/07/18 00:33:49;;;;;;;4.85;4.25;;;22.30;67.90;;;;;;4974348;28;20038;-63
2023/07/18 00:36:15;;;;;;;4.47;3.78;;;22.20;67.70;;;;;;4975901;28;20044;-63
2023/07/18 00:38:42;;;;;;;4.70;3.65;;;22.20;67.40;;;;;;4974404;28;20584;-63
2023/07/18 00:41:10;;;;;;;5.15;3.67;;;22.20;67.20;;;;;;4975743;28;20102;-63
2023/07/18 00:43:36;;;;;;;3.72;3.42;;;22.20;66.80;;;;;;4975819;28;20473;-63
2023/07/18 00:46:03;;;;;;;6.88;3.45;;;22.20;66.30;;;;;;4969953;28;20393;-62
2023/07/18 00:48:31;;;;;;;4.75;3.50;;;22.10;65.80;;;;;;4967399;28;20046;-64
2023/07/18 00:50:58;;;;;;;4.80;3.58;;;22.10;65.70;;;;;;4970800;28;20414;-63
2023/07/18 00:53:24;;;;;;;8.52;3.90;;;22.00;65.60;;;;;;4958767;28;20046;-62
2023/07/18 00:55:50;;;;;;;5.35;3.80;;;21.90;65.80;;;;;;4967348;28;20419;-61
2023/07/18 00:58:17;;;;;;;5.00;4.05;;;21.80;66.90;;;;;;4969116;28;20046;-61
2023/07/18 01:00:42;;;;;;;5.93;3.55;;;21.70;66.20;;;;;;4971331;28;20041;-63
2023/07/18 01:03:08;;;;;;;5.53;4.00;;;21.60;66.40;;;;;;4973886;28;20034;-63
2023/07/18 01:05:34;;;;;;;4.53;4.13;;;21.60;66.50;;;;;;4970215;28;20030;-62
2023/07/18 01:08:00;;;;;;;6.32;4.30;;;21.50;66.70;;;;;;4972056;28;20043;-63
2023/07/18 01:10:27;;;;;;;5.70;4.55;;;21.50;67.10;;;;;;4971088;28;20573;-64
2023/07/18 01:13:02;;;;;;;4.35;3.85;;;21.40;67.00;;;;;;4972095;28;20063;-64
2023/07/18 01:15:31;;;;;;;;;;;21.40;67.00;;;;;;4971926;28;20042;-63
2023/07/18 01:17:56;;;;;;;3.67;3.10;;;21.30;66.40;;;;;;4971760;28;19945;-63
2023/07/18 01:20:27;;;;;;;4.38;3.40;;;21.20;66.30;;;;;;4970524;28;20499;-63
2023/07/18 01:22:56;;;;;;;4.82;3.20;;;21.20;66.50;;;;;;4973260;28;20035;-63
2023/07/18 01:25:21;;;;;;;4.72;3.33;;;21.10;66.00;;;;;;4970706;28;20090;-62
2023/07/18 01:27:52;;;;;;;5.22;3.35;;;21.10;65.60;;;;;;4970737;28;20039;-62
2023/07/18 01:30:20;;;;;;;5.80;3.55;;;21.00;65.90;;;;;;4977149;28;20092;-64
2023/07/18 01:32:49;;;;;;;3.70;3.10;;;20.90;66.10;;;;;;4975202;28;20031;-63
2023/07/18 01:35:17;;;;;;;4.18;3.30;;;20.90;67.60;;;;;;4974722;28;20129;-62
2023/07/18 01:37:46;;;;;;;3.90;3.08;;;20.80;66.90;;;;;;4975791;28;20407;-62
2023/07/18 01:40:14;;;;;;;4.38;3.78;;;20.80;67.40;;;;;;4974738;28;20035;-63
2023/07/18 01:42:40;;;;;;;4.78;3.80;;;20.70;68.10;;;;;;4974741;28;20030;-62
2023/07/18 01:45:07;;;;;;;7.72;3.80;;;20.70;69.00;;;;;;4967682;28;20046;-64
2023/07/18 01:47:33;;;;;;;4.70;3.85;;;20.60;69.60;;;;;;4975251;28;20034;-63
2023/07/18 01:50:04;;;;;;;7.28;3.92;;;20.70;70.00;;;;;;4974905;28;20105;-64
2023/07/18 01:52:31;;;;;;;6.93;4.20;;;20.70;70.20;;;;;;4973571;28;20038;-63
2023/07/18 01:54:59;;;;;;;3.85;3.22;;;20.70;70.00;;;;;;4972751;28;20046;-63
2023/07/18 01:57:29;;;;;;;5.65;4.35;;;20.80;70.10;;;;;;4972415;28;20026;-63
2023/07/18 01:59:55;;;;;;;5.68;3.95;;;20.80;70.40;;;;;;4971768;28;20109;-63
2023/07/18 02:02:21;;;;;;;4.82;4.03;;;20.90;70.40;;;;;;4971253;28;20506;-62
2023/07/18 02:04:48;;;;;;;5.00;3.67;;;20.90;70.40;;;;;;4972837;28;20159;-62
2023/07/18 02:07:13;;;;;;;5.00;3.83;;;20.90;70.40;;;;;;4976208;28;20561;-63
2023/07/18 02:09:39;;;;;;;4.15;3.75;;;20.90;70.40;;;;;;4974106;28;20043;-63
2023/07/18 02:12:05;;;;;;;4.95;3.60;;;21.00;71.20;;;;;;4974400;28;20410;-63
2023/07/18 02:14:30;;;;;;;5.13;3.88;;;21.00;70.40;;;;;;4971113;28;20118;-63
2023/07/18 02:16:57;;;;;;;6.20;3.78;;;21.00;70.30;;;;;;4973681;28;20034;-63
2023/07/18 02:19:24;;;;;;;4.20;3.42;;;21.00;70.20;;;;;;4973127;28;20256;-62
2023/07/18 02:21:49;;;;;;;5.47;3.60;;;21.00;70.00;;;;;;4974973;28;20031;-62
2023/07/18 02:24:15;;;;;;;3.97;3.42;;;21.00;70.00;;;;;;4974730;28;20391;-63
2023/07/18 02:26:40;;;;;;;5.07;3.47;;;21.00;69.90;;;;;;4974719;28;20051;-63
2023/07/18 02:29:06;;;;;;;5.70;3.58;;;21.00;69.80;;;;;;4970148;28;20038;-63
2023/07/18 02:31:33;;;;;;;5.80;3.63;;;21.10;70.00;;;;;;4973701;28;20053;-63
2023/07/18 02:33:58;;;;;;;4.45;3.70;;;21.10;69.40;;;;;;4973326;28;20042;-63
2023/07/18 02:36:24;;;;;;;4.35;3.90;;;21.10;69.00;;;;;;4973078;28;20132;-64
2023/07/18 02:38:50;;;;;;;5.03;3.63;;;21.00;68.80;;;;;;4973696;28;20093;-63
2023/07/18 02:41:15;;;;;;;5.00;3.08;;;21.00;68.60;;;;;;4975747;28;20130;-64
2023/07/18 02:43:41;;;;;;;4.50;3.17;;;21.00;68.70;;;;;;4972765;28;20047;-63
2023/07/18 02:46:06;;;;;;;4.18;2.75;;;21.10;68.80;;;;;;4973114;28;20484;-63
2023/07/18 02:48:32;;;;;;;4.15;3.35;;;21.00;68.60;;;;;;4974595;28;20038;-64
2023/07/18 02:50:58;;;;;;;4.25;3.17;;;21.10;68.80;;;;;;4974618;28;20034;-64
2023/07/18 02:53:23;;;;;;;3.50;3.20;;;21.10;68.60;;;;;;4969611;28;20027;-62
2023/07/18 02:55:49;;;;;;;3.50;2.88;;;21.10;68.70;;;;;;4971253;28;20465;-63
2023/07/18 02:58:15;;;;;;;5.00;3.25;;;21.10;68.80;;;;;;4971196;28;20050;-63
2023/07/18 03:00:40;;;;;;;3.42;3.05;;;21.10;69.00;;;;;;4967526;28;20035;-63
2023/07/18 03:03:07;;;;;;;4.18;3.05;;;21.00;68.30;;;;;;4969900;28;20038;-63
2023/07/18 03:05:33;;;;;;;3.88;3.25;;;21.00;68.30;;;;;;4974433;28;20089;-63
2023/07/18 03:07:59;;;;;;;3.25;2.95;;;21.00;68.60;;;;;;4970671;28;20034;-63
2023/07/18 03:10:24;;;;;;;4.53;3.20;;;20.90;68.80;;;;;;4967733;28;20046;-62
2023/07/18 03:12:50;;;;;;;5.53;2.85;;;20.90;69.10;;;;;;4968986;28;20035;-63
2023/07/18 03:15:16;;;;;;;4.70;2.78;;;20.80;69.00;;;;;;4968992;28;20042;-63
2023/07/18 03:17:42;;;;;;;5.10;2.90;;;20.80;68.80;;;;;;4968800;28;20054;-63
2023/07/18 03:20:19;;;;;;;8.15;2.75;;;20.70;68.70;;;;;;4968917;28;20026;-63
2023/07/18 03:22:48;;;;;;;3.92;2.97;;;20.70;68.50;;;;;;4966669;28;20030;-62
2023/07/18 03:25:14;;;;;;;3.97;2.72;;;20.60;68.90;;;;;;4970994;28;20062;-63
2023/07/18 03:27:40;;;;;;;3.80;2.70;;;20.50;68.70;;;;;;4969377;28;20035;-63
2023/07/18 03:30:10;;;;;;;3.38;3.08;;;20.40;68.80;;;;;;4968633;28;20133;-62
2023/07/18 03:32:38;;;;;;;4.90;3.05;;;20.30;69.40;;;;;;4969807;28;20600;-63
2023/07/18 03:35:04;;;;;;;5.00;2.92;;;20.30;69.70;;;;;;4969512;28;20034;-63
2023/07/18 03:37:30;;;;;;;5.15;3.30;;;20.30;70.00;;;;;;4969818;28;20569;-62
2023/07/18 03:39:55;;;;;;;5.72;3.30;;;20.20;70.10;;;;;;4969355;28;20053;-63
2023/07/18 03:42:21;;;;;;;6.40;3.28;;;20.20;70.50;;;;;;4970893;28;20085;-63
2023/07/18 03:44:47;;;;;;;3.88;3.03;;;20.20;70.90;;;;;;4969206;28;20045;-63
2023/07/18 03:47:12;;;;;;;6.30;3.10;;;20.20;70.70;;;;;;4968609;28;20043;-63
2023/07/18 03:49:38;;;;;;;4.53;3.00;;;20.20;70.70;;;;;;4968329;28;20126;-62
2023/07/18 03:52:05;;;;;;;8.82;3.22;;;20.20;70.80;;;;;;4969526;28;20039;-63
2023/07/18 03:54:32;;;;;;;3.55;2.83;;;20.10;70.30;;;;;;4967388;28;20093;-63
2023/07/18 03:56:58;;;;;;;4.10;2.92;;;20.10;70.20;;;;;;4970015;28;20046;-64
2023/07/18 03:59:25;;;;;;;3.58;3.08;;;20.10;70.40;;;;;;4967123;28;20134;-62
2023/07/18 04:01:54;;;;;;;3.83;2.92;;;20.00;70.60;;;;;;4968977;28;20046;-62
2023/07/18 04:04:19;;;;;;;4.43;2.80;;;20.00;70.70;;;;;;4970014;28;20035;-63
2023/07/18 04:06:45;;;;;;;4.43;2.72;;;20.00;70.90;;;;;;4969081;28;20065;-63
2023/07/18 04:09:11;;;;;;;4.65;2.60;;;19.90;70.90;;;;;;4971946;28;20469;-62
2023/07/18 04:11:37;;;;;;;3.30;2.72;;;19.90;70.90;;;;;;4974013;28;20089;-63
2023/07/18 04:14:03;;;;;;;3.35;2.72;;;19.90;71.20;;;;;;4970714;28;20042;-61
2023/07/18 04:16:29;;;;;;;3.65;2.85;;;19.90;71.30;;;;;;4969376;28;20474;-63
2023/07/18 04:18:55;;;;;;;8.75;3.13;;;19.80;71.30;;;;;;4968210;28;20082;-63
2023/07/18 04:21:21;;;;;;;3.45;2.95;;;19.80;71.40;;;;;;4973081;28;20395;-63
2023/07/18 04:23:47;;;;;;;3.65;2.75;;;19.80;71.70;;;;;;4972924;28;20038;-63
2023/07/18 04:26:13;;;;;;;5.80;2.92;;;19.80;71.60;;;;;;4971866;28;20078;-62
2023/07/18 04:28:39;;;;;;;3.80;2.70;;;19.80;71.70;;;;;;4970785;28;20129;-63
2023/07/18 04:31:05;;;;;;;4.55;2.92;;;19.80;71.80;;;;;;4969278;28;20576;-60
2023/07/18 04:33:39;;;;;;;4.22;3.10;;;19.80;71.50;;;;;;4968597;28;20074;-63
2023/07/18 04:36:05;;;;;;;4.57;3.03;;;19.70;71.70;;;;;;4972383;28;20093;-63
2023/07/18 04:38:31;;;;;;;6.22;2.80;;;19.80;71.70;;;;;;4971880;28;20030;-63
2023/07/18 04:41:02;;;;;;;5.57;3.05;;;19.80;71.60;;;;;;4972539;28;20065;-63
2023/07/18 04:43:28;;;;;;;4.82;2.92;;;19.80;71.70;;;;;;4971606;28;20042;-62
2023/07/18 04:45:54;;;;;;;5.10;2.83;;;19.80;71.70;;;;;;4969414;28;20622;-62
2023/07/18 04:48:19;;;;;;;4.88;2.92;;;19.80;71.70;;;;;;4967191;28;20042;-63
2023/07/18 04:50:55;;;;;;;3.22;2.88;;;19.80;71.10;;;;;;4971275;28;20117;-62
2023/07/18 04:53:21;;;;;;;6.28;3.25;;;19.80;71.00;;;;;;4974712;28;20034;-61
2023/07/18 04:55:51;;;;;;;6.82;3.20;;;19.80;70.70;;;;;;4970468;28;20074;-62
2023/07/18 04:58:18;;;;;;;5.97;3.25;;;19.80;70.60;;;;;;4972620;28;20097;-63
2023/07/18 05:00:43;;;;;;;4.45;3.15;;;19.70;71.10;;;;;;4972679;28;20039;-64
2023/07/18 05:03:10;;;;;;;5.20;3.20;;;19.80;72.00;;;;;;4969621;28;20054;-64
2023/07/18 05:05:35;;;;;;;6.40;3.00;;;19.70;72.30;;;;;;4970124;28;20042;-60
2023/07/18 05:08:03;;;;;;;4.57;3.28;;;19.80;72.20;;;;;;4971388;28;20042;-63
2023/07/18 05:10:29;;;;;;;7.88;3.10;;;19.70;71.20;;;;;;4971951;28;20502;-61
2023/07/18 05:12:56;;;;;;;4.90;2.90;;;19.80;70.70;;;;;;4965407;28;20054;-63
2023/07/18 05:15:22;;;;;;;4.13;2.83;;;19.70;71.30;;;;;;4970214;28;20375;-62
2023/07/18 05:17:47;;;;;;;5.10;3.00;;;19.80;71.60;;;;;;4967762;28;20158;-63
2023/07/18 05:20:14;;;;;;;4.40;3.00;;;19.80;71.90;;;;;;4970535;28;20461;-62
2023/07/18 05:22:41;;;;;;;5.22;3.00;;;19.80;71.60;;;;;;4969538;28;20035;-62
2023/07/18 05:25:08;;;;;;;3.85;3.00;;;19.80;71.60;;;;;;4971565;28;20045;-63
2023/07/18 05:27:34;;;;;;;3.42;3.13;;;19.90;71.20;;;;;;4969254;28;20035;-62
2023/07/18 05:30:00;;;;;;;6.20;2.83;;;19.90;71.10;;;;;;4968987;28;20054;-62
2023/07/18 05:32:26;;;;;;;4.13;2.83;;;20.00;71.10;;;;;;4965911;28;20043;-63
2023/07/18 05:34:52;;;;;;;5.25;2.88;;;20.00;70.70;;;;;;4966671;28;20051;-63
2023/07/18 05:37:17;;;;;;;4.03;2.42;;;20.00;70.50;;;;;;4968134;28;20061;-62
2023/07/18 05:39:43;;;;;;;3.28;2.78;;;20.10;70.60;;;;;;4967383;28;20047;-63
2023/07/18 05:42:09;;;;;;;3.65;2.58;;;20.10;70.50;;;;;;4966418;28;20031;-63
2023/07/18 05:44:34;;;;;;;4.22;2.45;;;20.20;70.40;;;;;;4968708;28;20105;-62
2023/07/18 05:47:00;;;;;;;5.93;2.58;;;20.20;70.10;;;;;;4971694;28;20030;-63
2023/07/18 05:49:29;;;;;;;6.63;2.80;;;20.30;69.90;;;;;;4969416;28;20569;-62
2023/07/18 05:51:58;;;;;;;3.13;2.50;;;20.40;69.50;;;;;;4970436;28;20529;-63
2023/07/18 05:54:24;;;;;;;5.18;2.70;;;20.50;68.80;;;;;;4972146;28;20058;-62
2023/07/18 05:56:49;;;;;;;3.58;2.33;;;20.60;68.50;;;;;;4971208;28;20153;-62
2023/07/18 05:59:15;;;;;;;4.10;2.50;;;20.60;68.10;;;;;;4970182;28;20034;-64
2023/07/18 06:01:40;;;;;;;2.83;2.17;;;20.70;68.10;;;;;;4971362;28;20041;-62
2023/07/18 06:04:06;;;;;;;5.13;2.80;;;20.70;68.10;;;;;;4970232;28;20042;-63
2023/07/18 06:06:32;;;;;;;4.18;2.47;;;20.80;68.20;;;;;;4969521;28;20589;-63
2023/07/18 06:08:58;;;;;;;3.47;2.50;;;20.90;68.50;;;;;;4970418;28;20061;-62
2023/07/18 06:11:23;;;;;;;5.70;2.70;;;21.00;68.10;;;;;;4971141;28;20038;-62
2023/07/18 06:13:51;;;;;;;5.93;2.80;;;21.00;68.00;;;;;;4970426;28;21756;-63
2023/07/18 06:16:17;;;;;;;3.90;2.63;;;21.10;67.40;;;;;;4971888;28;20041;-63
2023/07/18 06:18:43;;;;;;;4.47;2.58;;;21.20;67.40;;;;;;4973484;28;20026;-63
2023/07/18 06:21:08;;;;;;;3.65;2.55;;;21.20;67.10;;;;;;4973029;28;20670;-62
2023/07/18 06:23:34;;;;;;;3.63;2.45;;;21.30;66.60;;;;;;4975436;28;20058;-62
2023/07/18 06:25:59;;;;;;;4.65;2.08;;;21.30;66.50;;;;;;4975088;28;20581;-62
2023/07/18 06:28:25;;;;;;;3.38;1.95;;;21.40;66.40;;;;;;4975381;28;20035;-62
2023/07/18 06:30:54;;;;;;;3.50;2.30;;;21.50;66.00;;;;;;4969009;28;20801;-62
2023/07/18 06:33:20;;;;;;;2.38;2.03;;;21.60;65.60;;;;;;4976228;28;20495;-61
2023/07/18 06:35:56;;;;;;;2.70;2.30;;;21.70;65.30;;;;;;4976353;28;20043;-62
2023/07/18 06:38:22;;;;;;;3.92;2.25;;;21.70;65.00;;;;;;4976739;28;20438;-62
2023/07/18 06:40:49;;;;;;;4.38;2.28;;;21.80;64.40;;;;;;4976217;28;20069;-61
2023/07/18 06:43:16;;;;;;;3.40;1.98;;;21.80;64.60;;;;;;4976125;28;20060;-62
2023/07/18 06:45:46;;;;;;;2.78;2.00;;;21.90;64.30;;;;;;4973917;28;20446;-62
2023/07/18 06:48:13;;;;;;;2.90;2.00;;;21.90;63.30;;;;;;4973462;28;20045;-62
2023/07/18 06:50:49;;;;;;;3.08;1.98;;;22.00;63.40;;;;;;4970827;28;20035;-61
2023/07/18 06:53:17;;;;;;;3.72;1.67;;;22.10;62.60;;;;;;4973579;28;20031;-63
2023/07/18 06:55:43;;;;;;;2.40;1.70;;;22.10;62.80;;;;;;4972112;28;20534;-62
2023/07/18 06:58:09;;;;;;;2.17;1.58;;;22.20;61.90;;;;;;4970250;28;20133;-62
2023/07/18 07:00:39;;;;;;;1.88;1.23;;;22.30;61.10;;;;;;4972901;28;20463;-62
2023/07/18 07:03:05;;;;;;;3.05;1.42;;;22.40;60.40;;;;;;4972639;28;20126;-63
2023/07/18 07:05:34;;;;;;;4.72;1.48;;;22.40;60.50;;;;;;4970896;28;20031;-62
2023/07/18 07:08:00;;;;;;;4.22;1.90;;;22.50;60.20;;;;;;4972745;28;20043;-62
2023/07/18 07:10:25;;;;;;;4.18;1.95;;;22.60;60.00;;;;;;4975158;28;20161;-62
2023/07/18 07:12:51;;;;;;;4.85;1.67;;;22.70;60.10;;;;;;4967578;28;20883;-63
2023/07/18 07:15:17;;;;;;;2.33;1.33;;;22.80;59.70;;;;;;4971755;28;20218;-62
2023/07/18 07:17:42;;;;;;;5.53;1.60;;;22.80;59.40;;;;;;4971780;28;20034;-61
2023/07/18 07:20:14;;;;;;;3.92;1.40;;;22.90;59.10;;;;;;4972687;28;20035;-62
2023/07/18 07:22:43;;;;;;;1.92;1.20;;;23.00;58.30;;;;;;4975310;28;20954;-61
2023/07/18 07:25:13;;;;;;;6.40;1.70;;;23.10;58.50;;;;;;4975213;28;20035;-60
2023/07/18 07:27:39;;;;;;;2.83;1.60;;;23.20;58.20;;;;;;4977120;28;20114;-62
2023/07/18 07:30:05;;;;;;;5.63;1.50;;;23.20;57.70;;;;;;4976804;28;20045;-61
2023/07/18 07:32:31;;;;;;;3.40;1.50;;;23.30;57.40;;;;;;4977233;28;20613;-62
2023/07/18 07:34:57;;;;;;;3.22;1.75;;;23.40;57.10;;;;;;4976572;28;20487;-62
2023/07/18 07:37:23;;;;;;;3.80;1.45;;;23.40;56.80;;;;;;4966567;28;20801;-62
2023/07/18 07:39:49;;;;;;;1.48;1.20;;;23.50;56.60;;;;;;4969859;28;20031;-63
2023/07/18 07:42:15;;;;;;;2.17;1.55;;;23.60;56.40;;;;;;4971462;28;20506;-62
2023/07/18 07:44:40;;;;;;;2.67;1.35;;;23.60;56.30;;;;;;4970916;28;20495;-62
2023/07/18 07:47:06;;;;;;;4.18;1.50;;;23.70;56.10;;;;;;4968238;28;20050;-63
2023/07/18 07:49:32;;;;;;;4.57;1.70;;;23.80;55.80;;;;;;4972600;28;20035;-62
2023/07/18 07:51:57;;;;;;;2.50;1.50;;;23.90;56.20;;;;;;4974096;28;20125;-62
2023/07/18 07:54:23;;;;;;;2.63;1.73;;;23.90;56.00;;;;;;4976143;28;20034;-62
2023/07/18 07:56:49;;;;;;;2.85;1.70;;;24.00;55.70;;;;;;4973729;28;20041;-62
2023/07/18 07:59:14;;;;;;;2.03;1.58;;;24.10;55.70;;;;;;4972493;28;20046;-62
2023/07/18 08:01:40;;;;;;;3.28;2.10;;;24.10;55.50;;;;;;4972600;28;20471;-62
2023/07/18 08:04:07;;;;;;;6.60;1.48;;;24.20;55.10;;;;;;4974368;28;20050;-62
2023/07/18 08:06:33;;;;;;;3.33;1.50;;;24.30;54.90;;;;;;4971665;28;20042;-62
2023/07/18 08:08:59;;;;;;;2.70;1.70;;;24.30;55.10;;;;;;4973217;28;20042;-62
2023/07/18 08:11:24;;;;;;;2.83;1.85;;;24.40;55.10;;;;;;4986234;28;20105;-62
2023/07/18 08:13:50;;;;;;;3.97;1.55;;;24.50;55.10;;;;;;4970433;28;20049;-62
2023/07/18 08:16:16;;;;;;;4.75;1.90;;;24.50;55.10;;;;;;4968959;28;20062;-62
2023/07/18 08:18:42;;;;;;;2.25;1.67;;;24.60;54.70;;;;;;4970090;28;20125;-62
2023/07/18 08:21:07;;;;;;;3.20;1.95;;;24.70;54.60;;;;;;4970748;28;20082;-63
2023/07/18 08:23:33;;;;;;;3.00;1.70;;;24.80;54.30;;;;;;4969629;28;21626;-63
2023/07/18 08:25:59;;;;;;;2.45;1.88;;;24.90;54.30;;;;;;4969067;28;20435;-62
2023/07/18 08:28:24;;;;;;;3.40;1.80;;;25.00;54.20;;;;;;4968517;28;20042;-62
2023/07/18 08:30:50;;;;;;;4.07;1.75;;;25.00;53.70;;;;;;4972244;28;20038;-62
2023/07/18 08:33:19;;;;;;;4.13;1.63;;;25.10;53.90;;;;;;4967280;28;20280;-62
2023/07/18 08:35:44;;;;;;;3.50;1.90;;;25.20;53.60;;;;;;4972674;28;20430;-62
2023/07/18 08:38:13;;;;;;;3.45;1.83;;;25.30;53.40;;;;;;4969940;28;20037;-63
2023/07/18 08:40:43;;;;;;;4.63;1.90;;;25.40;53.20;;;;;;4971838;28;20487;-60
2023/07/18 08:43:13;;;;;;;2.75;1.70;;;25.50;52.60;;;;;;4968127;28;20046;-62
2023/07/18 08:45:40;;;;;;;2.85;2.10;;;25.50;53.70;;;;;;4967646;28;20146;-63
2023/07/18 08:48:06;;;;;;;3.90;1.85;;;25.60;53.50;;;;;;4967987;28;20129;-63
2023/07/18 08:50:33;;;;;;;3.35;1.90;;;25.70;53.20;;;;;;4967338;28;20039;-62
2023/07/18 08:52:59;;;;;;;2.60;1.77;;;25.80;53.10;;;;;;4971045;28;20034;-63
2023/07/18 08:55:29;;;;;;;4.10;2.10;;;25.90;52.60;;;;;;4969352;28;20126;-62
2023/07/18 08:57:55;;;;;;;4.25;2.03;;;26.00;52.80;;;;;;4968707;28;20034;-62
2023/07/18 09:00:20;;;;;;;3.80;2.10;;;26.10;52.60;;;;;;4968366;28;20030;-62
2023/07/18 09:02:48;;;;;;;3.50;1.70;;;26.10;53.10;;;;;;4967652;28;20458;-63
2023/07/18 09:05:36;;;;;;;2.40;1.90;;;26.20;53.20;;;;;;4971486;28;20405;-62
2023/07/18 09:08:04;;;;;;;4.30;2.03;;;26.30;52.00;;;;;;4967418;28;20030;-62
2023/07/18 09:10:30;;;;;;;3.63;2.20;;;26.40;52.80;;;;;;4967811;28;20065;-63
2023/07/18 09:13:04;;;;;;;3.72;1.90;;;26.50;52.10;;;;;;4971048;28;20053;-62
2023/07/18 09:15:34;;;;;;;2.92;2.08;;;26.50;51.00;;;;;;4971308;28;20125;-62
2023/07/18 09:18:06;;;;;;;2.97;2.03;;;26.60;50.80;;;;;;4967500;28;20045;-62
2023/07/18 09:20:33;;;;;;;2.85;1.98;;;26.60;51.30;;;;;;4972658;28;20046;-63
2023/07/18 09:23:02;;;;;;;5.97;2.00;;;26.70;52.00;;;;;;4971796;28;20039;-60
2023/07/18 09:25:29;;;;;;;3.13;2.22;;;26.70;52.20;;;;;;4973654;28;20027;-63
2023/07/18 09:27:56;;;;;;;7.57;2.28;;;26.80;52.40;;;;;;4972111;28;20126;-63
2023/07/18 09:30:23;;;;;;;3.10;2.05;;;26.90;52.10;;;;;;4971748;28;20125;-62
2023/07/18 09:32:52;;;;;;;3.30;2.00;;;27.00;51.70;;;;;;4971448;28;20038;-62
2023/07/18 09:35:18;;;;;;;2.30;2.10;;;27.10;51.90;;;;;;4971451;28;20039;-62
2023/07/18 09:37:46;;;;;;;3.53;2.00;;;27.20;52.30;;;;;;4972646;28;20043;-62
2023/07/18 09:40:17;;;;;;;3.03;2.22;;;27.30;51.90;;;;;;4971116;28;20042;-63
2023/07/18 09:42:47;;;;;;;2.92;2.00;;;27.40;51.90;;;;;;4969729;28;20066;-62
2023/07/18 09:45:14;;;;;;;3.20;2.03;;;27.60;51.60;;;;;;4973246;28;20043;-63
2023/07/18 09:47:43;;;;;;;4.47;2.13;;;27.70;51.90;;;;;;4972965;28;20100;-62
2023/07/18 09:50:10;;;;;;;3.47;1.83;;;27.80;51.50;;;;;;4969584;28;20046;-64
2023/07/18 09:52:41;;;;;;;3.25;2.22;;;27.90;51.50;;;;;;4974331;28;20045;-63
2023/07/18 09:55:09;;;;;;;2.80;1.98;;;28.00;51.10;;;;;;4971233;28;20049;-61
2023/07/18 09:57:41;;;;;;;3.65;2.05;;;28.10;51.00;;;;;;4969492;28;20042;-62
2023/07/18 10:00:11;;;;;;;4.13;2.20;;;28.20;50.20;;;;;;4971097;28;20122;-62
2023/07/18 10:02:36;;;;;;;2.70;2.10;;;28.30;50.50;;;;;;4976147;28;20049;-62
2023/07/18 10:05:04;;;;;;;5.22;2.65;;;28.30;50.20;;;;;;4978102;28;20042;-64
2023/07/18 10:07:33;;;;;;;2.30;2.10;;;28.40;49.50;;;;;;4977906;28;20071;-63
2023/07/18 10:10:00;;;;;;;3.78;2.17;;;28.40;49.90;;;;;;4976253;28;20512;-62
2023/07/18 10:12:26;;;;;;;6.03;2.58;;;28.50;50.40;;;;;;4974136;28;20030;-64
2023/07/18 10:15:00;;;;;;;4.30;2.45;;;28.60;50.20;;;;;;4977555;28;20039;-62
2023/07/18 10:17:39;;;;;;;4.22;2.47;;;28.60;49.50;;;;;;4977742;28;20038;-62
2023/07/18 10:20:13;;;;;;;3.05;2.55;;;28.70;49.40;;;;;;4976898;28;20035;-62
2023/07/18 10:22:55;;;;;;;4.50;2.55;;;28.60;47.10;;;;;;4977814;28;20038;-62
2023/07/18 10:25:21;;;;;;;4.90;2.22;;;28.70;47.70;;;;;;4978707;28;20039;-62
2023/07/18 10:27:48;;;;;;;3.33;2.20;;;28.60;48.20;;;;;;4978633;28;20117;-63
2023/07/18 10:30:21;;;;;;;3.25;2.30;;;28.50;48.10;;;;;;4975651;28;20517;-62
2023/07/18 10:32:54;;;;;;;4.30;2.42;;;28.40;48.40;;;;;;4973793;28;20050;-62
2023/07/18 10:35:21;;;;;;;3.58;2.40;;;28.30;48.60;;;;;;4973429;28;20066;-61
2023/07/18 10:37:53;;;;;;;4.05;2.50;;;28.20;49.10;;;;;;4977354;28;20051;-62
2023/07/18 10:40:45;;;;;;;2.50;2.20;;;28.10;49.00;;;;;;4974029;28;20038;-62
2023/07/18 10:43:16;;;;;;;3.30;2.42;;;28.10;48.80;;;;;;4971913;28;20042;-63
2023/07/18 10:45:42;;;;;;;5.50;2.33;;;28.10;49.80;;;;;;4975242;28;20491;-61
2023/07/18 10:48:20;;;;;;;3.42;2.38;;;28.00;49.70;;;;;;4973807;28;20105;-61
2023/07/18 10:50:47;;;;;;;4.35;2.30;;;28.00;48.90;;;;;;4975672;28;20035;-61
2023/07/18 10:53:15;;;;;;;4.40;2.38;;;27.90;49.10;;;;;;4974563;28;20042;-61
2023/07/18 10:55:41;;;;;;;8.32;2.53;;;27.90;50.00;;;;;;4975151;28;20039;-60
2023/07/18 10:58:24;;;;;;;5.63;2.40;;;27.80;50.20;;;;;;4973313;28;20514;-63
2023/07/18 11:00:50;;;;;;;4.60;2.53;;;27.80;50.00;;;;;;4976704;28;20113;-62
2023/07/18 11:03:23;;;;;;;2.40;2.20;;;27.80;50.10;;;;;;4975693;28;20058;-62
2023/07/18 11:05:50;;;;;;;3.15;2.20;;;27.80;50.60;;;;;;4976210;28;20053;-63
2023/07/18 11:08:27;;;;;;;2.42;2.22;;;27.90;50.80;;;;;;4975331;28;20531;-62
2023/07/18 11:11:03;;;;;;;3.55;2.20;;;27.90;50.70;;;;;;4973151;28;20041;-62
2023/07/18 11:13:33;;;;;;;2.58;2.33;;;28.00;51.30;;;;;;4974799;28;20042;-63
2023/07/18 11:16:10;;;;;;;3.10;2.50;;;28.10;51.30;;;;;;4975749;28;20034;-64
2023/07/18 11:18:38;;;;;;;3.50;2.03;;;28.20;50.50;;;;;;4976423;28;20031;-62
2023/07/18 11:21:05;;;;;;;4.80;2.35;;;28.30;50.30;;;;;;4972804;28;20045;-63
2023/07/18 11:23:35;;;;;;;7.63;2.20;;;28.30;50.70;;;;;;4974539;28;20031;-61
2023/07/18 11:26:12;;;;;;;3.25;2.50;;;28.30;50.40;;;;;;4973059;28;20054;-62
2023/07/18 11:28:40;;;;;;;5.35;2.50;;;28.30;49.70;;;;;;4973652;28;20125;-61
2023/07/18 11:31:06;;;;;;;4.68;2.63;;;28.30;50.90;;;;;;4975578;28;20246;-62
2023/07/18 11:33:32;;;;;;;3.30;2.33;;;28.20;51.60;;;;;;4972683;28;20125;-63
2023/07/18 11:35:58;;;;;;;8.82;3.30;;;28.10;52.10;;;;;;4974569;28;20128;-63
2023/07/18 11:38:28;;;;;;;3.88;2.60;;;28.10;53.10;;;;;;4970545;28;20050;-62
2023/07/18 11:40:53;;;;;;;4.78;3.00;;;28.00;54.10;;;;;;4974762;28;20121;-63
2023/07/18 11:43:19;;;;;;;4.70;2.55;;;27.90;53.70;;;;;;4976051;28;20515;-59
2023/07/18 11:45:46;;;;;;;4.22;2.83;;;27.80;53.70;;;;;;4975763;28;20034;-62
2023/07/18 11:48:15;;;;;;;5.35;2.88;;;27.60;54.20;;;;;;4975893;28;20046;-62
2023/07/18 11:50:44;;;;;;;5.32;3.00;;;27.30;54.50;;;;;;4975603;28;20038;-62
2023/07/18 11:53:10;;;;;;;2.95;2.60;;;27.10;55.00;;;;;;4974958;28;20030;-62
2023/07/18 11:55:36;;;;;;;6.40;2.63;;;27.00;55.50;;;;;;4976539;28;20035;-61
2023/07/18 11:58:07;;;;;;;3.75;2.50;;;26.80;56.20;;;;;;4975625;28;20035;-62
2023/07/18 12:00:35;;;;;;;4.78;2.30;;;26.70;57.00;;;;;;4972116;28;20034;-62
2023/07/18 12:03:01;;;;;;;3.88;2.65;;;26.60;57.90;;;;;;4974958;28;20069;-61
2023/07/18 12:05:26;;;;;;;4.20;2.65;;;26.50;57.10;;;;;;4974367;28;20125;-61
2023/07/18 12:07:52;;;;;;;5.55;2.72;;;26.40;57.40;;;;;;4975245;28;20034;-61
2023/07/18 12:10:18;;;;;;;6.15;2.90;;;26.40;57.90;;;;;;4975411;28;20042;-59
2023/07/18 12:12:44;;;;;;;6.93;2.70;;;26.30;58.40;;;;;;4974409;28;20035;-59
2023/07/18 12:15:10;;;;;;;6.30;3.05;;;26.20;58.60;;;;;;4975270;28;20089;-60
2023/07/18 12:17:38;;;;;;;4.63;2.92;;;26.10;59.20;;;;;;4975301;28;20064;-61
2023/07/18 12:20:04;;;;;;;6.05;2.97;;;26.00;60.00;;;;;;4973686;28;20035;-61
2023/07/18 12:22:31;;;;;;;5.15;2.80;;;25.90;59.60;;;;;;4976843;28;20518;-60
2023/07/18 12:24:56;;;;;;;5.75;2.90;;;25.80;60.10;;;;;;4974633;28;20137;-62
2023/07/18 12:27:22;;;;;;;5.38;3.15;;;25.70;60.50;;;;;;4974872;28;20069;-60
2023/07/18 12:29:48;;;;;;;4.32;3.03;;;25.50;60.90;;;;;;4974963;28;20520;-59
2023/07/18 12:32:14;;;;;;;4.88;3.20;;;25.50;61.70;;;;;;4975858;28;20506;-60
2023/07/18 12:34:40;;;;;;;6.20;3.05;;;25.40;62.30;;;;;;4973599;28;20044;-59
2023/07/18 12:37:07;;;;;;;3.83;2.75;;;25.30;62.10;;;;;;4975336;28;20463;-61
2023/07/18 12:39:33;;;;;;;4.35;3.17;;;25.30;62.30;;;;;;4972309;28;20451;-59
2023/07/18 12:41:59;;;;;;;6.40;3.38;;;25.30;62.60;;;;;;4974824;28;20044;-61
2023/07/18 12:44:38;;;;;;;4.88;3.20;;;25.20;63.40;;;;;;4972999;28;20449;-61
2023/07/18 12:47:04;;;;;;;5.13;3.47;;;25.20;64.20;;;;;;4976173;28;20122;-60
2023/07/18 12:49:30;;;;;;;4.85;3.13;;;25.10;63.40;;;;;;4974566;28;20043;-61